Celtic Voyager — EIQN — position and weather

sailwx.info

Track history (hours):
 
Tides and Currents Weather Stations Pressure Air Temp Water Temp Dewpoint Dewpoint Depression Visibility Wind Speed Wind Dir Waves Ship Positions

Oceanographic research ship Celtic Voyager (Ireland)

Detailed information on ship capabilities available from University of Delaware's Ocean Information Center.

Last reported at 2017-May-23 15:38 UTC. Time now 2017-May-26 07:18 UTC.
Position N 52°03' W 006°40'.

Length 31 m; beam 8 m.

Type: Ship. MMSI: 250089000.

Date/timePositionNaut miles runAvg speedWind from/ knotsBaromVisibWave heightAir tempDewpointWater temp
2017-May-23 15:38N 52°03' W 006°40'1 9.8
2017-May-23 15:29N 52°03' W 006°43'5 9.8
2017-May-23 15:00N 52°02' W 006°50'3 7.0
2017-May-23 14:30N 52°02' W 006°56'2 1.9
2017-May-23 13:30N 52°02' W 006°59'1 1.7
2017-May-23 13:00N 52°01' W 006°59'1 2.6
2017-May-23 12:30N 52°01' W 007°01'2 4.1
2017-May-23 12:00N 52°01' W 007°04'3 5.2
2017-May-23 11:30N 52°02' W 007°08'2 4.6
2017-May-23 11:00N 51°60' W 007°08'5 9.2
2017-May-23 10:30N 51°55' W 007°06'3 4.4
2017-May-23 09:45N 51°52' W 007°05'2 8.6
2017-May-23 09:30N 51°52' W 007°08'5 9.4
2017-May-23 09:00N 51°53' W 007°16'5 8.7
2017-May-23 08:29N 51°53' W 007°23'0 0.9
2017-May-23 07:58N 51°53' W 007°24'2 3.6
2017-May-23 07:28N 51°53' W 007°27'2 3.9
2017-May-23 07:00N 51°53' W 007°30'2 3.0
2017-May-23 06:23N 51°54' W 007°32'1 1.5
2017-May-23 05:59N 51°54' W 007°32'7 7.7
2017-May-23 05:02N 52°01' W 007°30'0 7.8
2017-May-23 05:00N 52°02' W 007°30'4 7.2
2017-May-23 04:31N 52°05' W 007°29'0 0.4
2017-May-23 04:00N 52°05' W 007°29'0 0.4
2017-May-23 03:30N 52°05' W 007°29'0 0.4
2017-May-23 03:00N 52°05' W 007°29'0 0.3
2017-May-23 02:30N 52°05' W 007°30'0 0.3
2017-May-23 02:00N 52°05' W 007°30'0 0.3
2017-May-23 01:30N 52°04' W 007°30'0 0.3
2017-May-23 00:57N 52°04' W 007°30'0 0.3
2017-May-23 00:30N 52°04' W 007°30'0 0.3
2017-May-23 00:01N 52°04' W 007°31'0 0.3
2017-May-22 23:30N 52°04' W 007°31'0 0.3
2017-May-22 23:00N 52°04' W 007°31'0 0.4
2017-May-22 22:30N 52°04' W 007°31'2 2.9
2017-May-22 21:57N 52°05' W 007°29'4 8.0
2017-May-22 21:30N 52°05' W 007°23'4 7.9
2017-May-22 21:00N 52°04' W 007°17'4 7.7
2017-May-22 20:30N 52°04' W 007°11'4 7.3
2017-May-22 20:00N 52°04' W 007°05'3 5.7
2017-May-22 19:30N 52°03' W 007°01'0 0.1
2017-May-22 19:00N 52°03' W 007°01'1 1.9
2017-May-22 18:30N 52°03' W 006°59'3 5.2
2017-May-22 18:00N 52°04' W 006°55'4 7.0
2017-May-22 17:30N 52°04' W 006°49'3 6.9
2017-May-22 17:01N 52°05' W 006°44'1 2.1
2017-May-22 16:29N 52°05' W 006°42'1 1.7
2017-May-22 16:00N 52°04' W 006°43'2 3.3
2017-May-22 15:30N 52°03' W 006°41'1 1.5
2017-May-22 15:00N 52°03' W 006°40'2 1.5
2017-May-22 14:00N 52°04' W 006°38'1 2.2
2017-May-22 13:29N 52°04' W 006°36'0 0.4
2017-May-22 13:00N 52°04' W 006°37'1 0.9
2017-May-22 12:15N 52°04' W 006°36'1 1.1
2017-May-22 11:28N 52°04' W 006°35'  
2017-May-19 02:09N 47°60' W 005°06'3 8.7
2017-May-19 01:50N 47°58' W 005°03'3 8.9
2017-May-19 01:30N 47°57' W 004°59'4 8.9
2017-May-19 01:01N 47°55' W 004°53'4 8.7
2017-May-19 00:31N 47°53' W 004°47'45 8.8
2017-May-18 19:21N 47°38' W 003°44'3 9.1
2017-May-18 19:00N 47°39' W 003°39'4 8.8
2017-May-18 18:30N 47°40' W 003°33'4 8.5
2017-May-18 18:00N 47°41' W 003°27'4 7.3
2017-May-18 17:30N 47°42' W 003°22'2 3.7
2017-May-18 16:58N 47°44' W 003°21'0 0.0
2017-May-18 16:28N 47°44' W 003°21'0 0.0
2017-May-18 15:58N 47°44' W 003°21'0 0.0
2017-May-18 15:28N 47°44' W 003°21'0 0.0
2017-May-18 14:58N 47°44' W 003°21'0 0.0
2017-May-18 13:58N 47°44' W 003°21'0 0.0
2017-May-18 13:28N 47°44' W 003°21'0 0.0
2017-May-18 12:58N 47°44' W 003°21'0 0.0
2017-May-18 12:28N 47°44' W 003°21'0 0.0
2017-May-18 11:58N 47°44' W 003°21'0 0.0
2017-May-18 11:28N 47°44' W 003°21'0 0.0
2017-May-18 10:58N 47°44' W 003°21'0 0.0
2017-May-18 10:28N 47°44' W 003°21'0 0.0
2017-May-18 09:58N 47°44' W 003°21'0 0.0
2017-May-18 09:28N 47°44' W 003°21'0 0.0
2017-May-18 08:58N 47°44' W 003°21'0 0.0
2017-May-18 08:28N 47°44' W 003°21'1 1.1
2017-May-18 08:01N 47°44' W 003°21'4 7.6
2017-May-18 07:31N 47°41' W 003°25'2 4.8
2017-May-18 07:00N 47°40' W 003°28'3 5.3
2017-May-18 06:30N 47°40' W 003°32'3 6.2
2017-May-18 06:00N 47°40' W 003°37'4 7.9
2017-May-18 05:31N 47°40' W 003°43'3 6.3
2017-May-18 05:00N 47°40' W 003°47'3 6.9
2017-May-18 04:31N 47°38' W 003°51'17 6.6
2017-May-18 01:53N 47°40' W 004°16'5 3.9
2017-May-18 00:43N 47°40' W 004°23'22 3.8
2017-May-17 18:56N 47°31' W 003°53'9 7.0
2017-May-17 17:43N 47°24' W 003°47'2 9.0
2017-May-17 17:29N 47°22' W 003°45'5 9.1
2017-May-17 16:59N 47°18' W 003°42'52 4.1
2017-May-17 04:19N 46°26' W 003°38'2 5.8
2017-May-17 03:56N 46°25' W 003°35'5 9.5
2017-May-17 03:26N 46°23' W 003°29'26 9.6
2017-May-17 00:46N 46°13' W 002°55'3 9.8
2017-May-17 00:25N 46°12' W 002°50'510.0
2017-May-16 23:58N 46°10' W 002°44'5 9.7
2017-May-16 23:30N 46°09' W 002°38'21 9.2
2017-May-16 21:14N 46°01' W 002°10'2 8.9
2017-May-16 20:59N 46°00' W 002°07'4 8.8
2017-May-16 20:30N 45°59' W 002°02'5 5.5
2017-May-16 19:32N 45°57' W 001°54'0 8.8
2017-May-16 19:30N 45°57' W 001°54'3 5.1
2017-May-16 19:01N 45°58' W 001°50'45 3.7
2017-May-16 06:43N 45°14' W 001°30'1 4.0
2017-May-16 06:31N 45°14' W 001°29'14 7.0
2017-May-16 04:27N 45°29' W 001°28'2 4.2
2017-May-16 04:00N 45°29' W 001°31'25 5.7
2017-May-15 23:35N 45°36' W 002°05'0 2.4
2017-May-15 23:30N 45°36' W 002°06'10 5.3
2017-May-15 21:40N 45°44' W 002°12'0 1.4
2017-May-15 21:26N 45°44' W 002°12'3 7.7
2017-May-15 21:00N 45°43' W 002°07'4 5.4
2017-May-15 20:14N 45°43' W 002°02'2 7.1
2017-May-15 20:00N 45°43' W 001°59'2 3.3
2017-May-15 19:30N 45°43' W 001°57'5 9.6
2017-May-15 19:00N 45°47' W 001°53'4 7.2
2017-May-15 18:30N 45°50' W 001°50'2 4.4
2017-May-15 18:01N 45°48' W 001°50'5 8.5
2017-May-15 17:25N 45°43' W 001°51'2 3.9
2017-May-15 16:54N 45°43' W 001°48'4 8.1
2017-May-15 16:28N 45°43' W 001°43'2 3.7
2017-May-15 16:00N 45°41' W 001°43'10 2.2
2017-May-15 11:16N 45°45' W 001°29'17 4.6
2017-May-15 07:41N 45°50' W 001°52'2 8.9
2017-May-15 07:26N 45°50' W 001°55'7 6.4
2017-May-15 06:25N 45°51' W 002°04'29 3.0
2017-May-14 20:29N 45°50' W 002°47'1 2.3
2017-May-14 20:00N 45°50' W 002°48'4 8.3
2017-May-14 19:29N 45°46' W 002°48'  
Track history (hours):
 
Tides and Currents Weather Stations Pressure Air Temp Water Temp Dewpoint Dewpoint Depression Visibility Wind Speed Wind Dir Waves Ship Positions

Oceanographic research ship Celtic Voyager (Ireland)

Detailed information on ship capabilities available from University of Delaware's Ocean Information Center.

Last reported at 2017-May-23 15:38 UTC. Time now 2017-May-26 07:18 UTC.
Position N 52°03' W 006°40'.

Length 31 m; beam 8 m.

Type: Ship. MMSI: 250089000.

Date/timePositionNaut miles runAvg speedWind from/ knotsBaromVisibWave heightAir tempDewpointWater temp
2017-May-23 15:38N 52°03' W 006°40'1 9.8
2017-May-23 15:29N 52°03' W 006°43'5 9.8
2017-May-23 15:00N 52°02' W 006°50'3 7.0
2017-May-23 14:30N 52°02' W 006°56'2 1.9
2017-May-23 13:30N 52°02' W 006°59'1 1.7
2017-May-23 13:00N 52°01' W 006°59'1 2.6
2017-May-23 12:30N 52°01' W 007°01'2 4.1
2017-May-23 12:00N 52°01' W 007°04'3 5.2
2017-May-23 11:30N 52°02' W 007°08'2 4.6
2017-May-23 11:00N 51°60' W 007°08'5 9.2
2017-May-23 10:30N 51°55' W 007°06'3 4.4
2017-May-23 09:45N 51°52' W 007°05'2 8.6
2017-May-23 09:30N 51°52' W 007°08'5 9.4
2017-May-23 09:00N 51°53' W 007°16'5 8.7
2017-May-23 08:29N 51°53' W 007°23'0 0.9
2017-May-23 07:58N 51°53' W 007°24'2 3.6
2017-May-23 07:28N 51°53' W 007°27'2 3.9
2017-May-23 07:00N 51°53' W 007°30'2 3.0
2017-May-23 06:23N 51°54' W 007°32'1 1.5
2017-May-23 05:59N 51°54' W 007°32'7 7.7
2017-May-23 05:02N 52°01' W 007°30'0 7.8
2017-May-23 05:00N 52°02' W 007°30'4 7.2
2017-May-23 04:31N 52°05' W 007°29'0 0.4
2017-May-23 04:00N 52°05' W 007°29'0 0.4
2017-May-23 03:30N 52°05' W 007°29'0 0.4
2017-May-23 03:00N 52°05' W 007°29'0 0.3
2017-May-23 02:30N 52°05' W 007°30'0 0.3
2017-May-23 02:00N 52°05' W 007°30'0 0.3
2017-May-23 01:30N 52°04' W 007°30'0 0.3
2017-May-23 00:57N 52°04' W 007°30'0 0.3
2017-May-23 00:30N 52°04' W 007°30'0 0.3
2017-May-23 00:01N 52°04' W 007°31'0 0.3
2017-May-22 23:30N 52°04' W 007°31'0 0.3
2017-May-22 23:00N 52°04' W 007°31'0 0.4
2017-May-22 22:30N 52°04' W 007°31'2 2.9
2017-May-22 21:57N 52°05' W 007°29'4 8.0
2017-May-22 21:30N 52°05' W 007°23'4 7.9
2017-May-22 21:00N 52°04' W 007°17'4 7.7
2017-May-22 20:30N 52°04' W 007°11'4 7.3
2017-May-22 20:00N 52°04' W 007°05'3 5.7
2017-May-22 19:30N 52°03' W 007°01'0 0.1
2017-May-22 19:00N 52°03' W 007°01'1 1.9
2017-May-22 18:30N 52°03' W 006°59'3 5.2
2017-May-22 18:00N 52°04' W 006°55'4 7.0
2017-May-22 17:30N 52°04' W 006°49'3 6.9
2017-May-22 17:01N 52°05' W 006°44'1 2.1
2017-May-22 16:29N 52°05' W 006°42'1 1.7
2017-May-22 16:00N 52°04' W 006°43'2 3.3
2017-May-22 15:30N 52°03' W 006°41'1 1.5
2017-May-22 15:00N 52°03' W 006°40'2 1.5
2017-May-22 14:00N 52°04' W 006°38'1 2.2
2017-May-22 13:29N 52°04' W 006°36'0 0.4
2017-May-22 13:00N 52°04' W 006°37'1 0.9
2017-May-22 12:15N 52°04' W 006°36'1 1.1
2017-May-22 11:28N 52°04' W 006°35'  
2017-May-19 02:09N 47°60' W 005°06'3 8.7
2017-May-19 01:50N 47°58' W 005°03'3 8.9
2017-May-19 01:30N 47°57' W 004°59'4 8.9
2017-May-19 01:01N 47°55' W 004°53'4 8.7
2017-May-19 00:31N 47°53' W 004°47'45 8.8
2017-May-18 19:21N 47°38' W 003°44'3 9.1
2017-May-18 19:00N 47°39' W 003°39'4 8.8
2017-May-18 18:30N 47°40' W 003°33'4 8.5
2017-May-18 18:00N 47°41' W 003°27'4 7.3
2017-May-18 17:30N 47°42' W 003°22'2 3.7
2017-May-18 16:58N 47°44' W 003°21'0 0.0
2017-May-18 16:28N 47°44' W 003°21'0 0.0
2017-May-18 15:58N 47°44' W 003°21'0 0.0
2017-May-18 15:28N 47°44' W 003°21'0 0.0
2017-May-18 14:58N 47°44' W 003°21'0 0.0
2017-May-18 13:58N 47°44' W 003°21'0 0.0
2017-May-18 13:28N 47°44' W 003°21'0 0.0
2017-May-18 12:58N 47°44' W 003°21'0 0.0
2017-May-18 12:28N 47°44' W 003°21'0 0.0
2017-May-18 11:58N 47°44' W 003°21'0 0.0
2017-May-18 11:28N 47°44' W 003°21'0 0.0
2017-May-18 10:58N 47°44' W 003°21'0 0.0
2017-May-18 10:28N 47°44' W 003°21'0 0.0
2017-May-18 09:58N 47°44' W 003°21'0 0.0
2017-May-18 09:28N 47°44' W 003°21'0 0.0
2017-May-18 08:58N 47°44' W 003°21'0 0.0
2017-May-18 08:28N 47°44' W 003°21'1 1.1
2017-May-18 08:01N 47°44' W 003°21'4 7.6
2017-May-18 07:31N 47°41' W 003°25'2 4.8
2017-May-18 07:00N 47°40' W 003°28'3 5.3
2017-May-18 06:30N 47°40' W 003°32'3 6.2
2017-May-18 06:00N 47°40' W 003°37'4 7.9
2017-May-18 05:31N 47°40' W 003°43'3 6.3
2017-May-18 05:00N 47°40' W 003°47'3 6.9
2017-May-18 04:31N 47°38' W 003°51'17 6.6
2017-May-18 01:53N 47°40' W 004°16'5 3.9
2017-May-18 00:43N 47°40' W 004°23'22 3.8
2017-May-17 18:56N 47°31' W 003°53'9 7.0
2017-May-17 17:43N 47°24' W 003°47'2 9.0
2017-May-17 17:29N 47°22' W 003°45'5 9.1
2017-May-17 16:59N 47°18' W 003°42'52 4.1
2017-May-17 04:19N 46°26' W 003°38'2 5.8
2017-May-17 03:56N 46°25' W 003°35'5 9.5
2017-May-17 03:26N 46°23' W 003°29'26 9.6
2017-May-17 00:46N 46°13' W 002°55'3 9.8
2017-May-17 00:25N 46°12' W 002°50'510.0
2017-May-16 23:58N 46°10' W 002°44'5 9.7
2017-May-16 23:30N 46°09' W 002°38'21 9.2
2017-May-16 21:14N 46°01' W 002°10'2 8.9
2017-May-16 20:59N 46°00' W 002°07'4 8.8
2017-May-16 20:30N 45°59' W 002°02'5 5.5
2017-May-16 19:32N 45°57' W 001°54'0 8.8
2017-May-16 19:30N 45°57' W 001°54'3 5.1
2017-May-16 19:01N 45°58' W 001°50'45 3.7
2017-May-16 06:43N 45°14' W 001°30'1 4.0
2017-May-16 06:31N 45°14' W 001°29'14 7.0
2017-May-16 04:27N 45°29' W 001°28'2 4.2
2017-May-16 04:00N 45°29' W 001°31'25 5.7
2017-May-15 23:35N 45°36' W 002°05'0 2.4
2017-May-15 23:30N 45°36' W 002°06'10 5.3
2017-May-15 21:40N 45°44' W 002°12'0 1.4
2017-May-15 21:26N 45°44' W 002°12'3 7.7
2017-May-15 21:00N 45°43' W 002°07'4 5.4
2017-May-15 20:14N 45°43' W 002°02'2 7.1
2017-May-15 20:00N 45°43' W 001°59'2 3.3
2017-May-15 19:30N 45°43' W 001°57'5 9.6
2017-May-15 19:00N 45°47' W 001°53'4 7.2
2017-May-15 18:30N 45°50' W 001°50'2 4.4
2017-May-15 18:01N 45°48' W 001°50'5 8.5
2017-May-15 17:25N 45°43' W 001°51'2 3.9
2017-May-15 16:54N 45°43' W 001°48'4 8.1
2017-May-15 16:28N 45°43' W 001°43'2 3.7
2017-May-15 16:00N 45°41' W 001°43'10 2.2
2017-May-15 11:16N 45°45' W 001°29'17 4.6
2017-May-15 07:41N 45°50' W 001°52'2 8.9
2017-May-15 07:26N 45°50' W 001°55'7 6.4
2017-May-15 06:25N 45°51' W 002°04'29 3.0
2017-May-14 20:29N 45°50' W 002°47'1 2.3
2017-May-14 20:00N 45°50' W 002°48'4 8.3
2017-May-14 19:29N 45°46' W 002°48'  

Dump ship's entire track history